Hagaman, Illinois
Current Conditions -  °F | °C
As of 3:15 PM on Monday 22 Dec 2014 (Local Time) from K3LF Reporting Station
Light Rain Light Rain  
Wind Chill: 39°   Ceiling: 400
Heat Index: 44°   Visibility: 4mi
Dew Point: 43°   Wind: 12mph
Humidity: 94%   Direction: 140°SE
Pressure: 29.58"   Gusts: NA
Location:  39.2816°N, 90.0918°W
Report Text: K3LF 222115Z AUTO 14010KT 4SM -RA OVC004 07/06 A2958 RMK AO2 P0002 T00690060
Loading
Personal Weather Stations






























Interactive Weather Map New forecast layout! Learn more

10-Day Weather Forecast

Advertisements
Track Severe Weather on mobile